createdAt,value
2022-11-28T00:01:26.031Z,3.40
2022-11-28T00:03:53.222Z,3.40
2022-11-28T00:06:20.531Z,3.40
2022-11-28T00:08:47.922Z,3.40
2022-11-28T00:11:16.382Z,3.40
2022-11-28T00:13:43.997Z,3.30
2022-11-28T00:16:15.750Z,3.30
2022-11-28T00:18:42.638Z,3.30
2022-11-28T00:21:11.765Z,3.40
2022-11-28T00:23:39.348Z,3.40
2022-11-28T00:26:13.963Z,3.40
2022-11-28T00:28:40.851Z,3.30
2022-11-28T00:31:16.572Z,3.40
2022-11-28T00:33:43.786Z,3.40
2022-11-28T00:36:11.663Z,3.40
2022-11-28T00:38:38.901Z,3.40
2022-11-28T00:41:09.723Z,3.30
2022-11-28T00:43:36.878Z,3.30
2022-11-28T00:46:03.951Z,3.40
2022-11-28T00:48:31.838Z,3.50
2022-11-28T00:51:06.417Z,3.40
2022-11-28T00:53:33.214Z,3.50
2022-11-28T00:56:00.138Z,3.50
2022-11-28T00:58:27.015Z,3.40
2022-11-28T01:00:53.828Z,3.40
2022-11-28T01:03:20.727Z,3.50
2022-11-28T01:05:47.563Z,3.40
2022-11-28T01:08:14.377Z,3.50
2022-11-28T01:10:42.414Z,3.40
2022-11-28T01:13:10.239Z,3.50
2022-11-28T01:15:40.787Z,3.40
2022-11-28T01:18:07.828Z,3.40
2022-11-28T01:20:34.690Z,3.40
2022-11-28T01:23:01.773Z,3.40
2022-11-28T01:25:28.806Z,3.40
2022-11-28T01:27:58.345Z,3.40
2022-11-28T01:30:25.230Z,3.40
2022-11-28T01:32:52.147Z,3.40
2022-11-28T01:35:19.212Z,3.40
2022-11-28T01:37:45.955Z,3.40
2022-11-28T01:40:13.449Z,3.40
2022-11-28T01:42:40.403Z,3.40
2022-11-28T01:45:18.600Z,3.30
2022-11-28T01:47:46.842Z,3.30
2022-11-28T01:50:14.764Z,3.40
2022-11-28T01:52:47.024Z,3.30
2022-11-28T01:55:17.067Z,3.30
2022-11-28T01:57:44.053Z,3.30
2022-11-28T02:00:17.745Z,3.30
2022-11-28T02:03:01.149Z,3.30
2022-11-28T02:05:27.953Z,3.30
2022-11-28T02:07:54.866Z,3.20
2022-11-28T02:10:53.760Z,3.30
2022-11-28T02:14:05.959Z,3.30
2022-11-28T02:16:51.200Z,3.20
2022-11-28T02:19:55.577Z,3.20
2022-11-28T02:22:34.492Z,3.20
2022-11-28T02:25:26.024Z,3.20
2022-11-28T02:28:11.635Z,3.20
2022-11-28T02:30:50.745Z,3.30
2022-11-28T02:33:38.228Z,3.30
2022-11-28T02:36:17.223Z,3.30
2022-11-28T02:39:02.287Z,3.30
2022-11-28T02:41:32.137Z,3.30
2022-11-28T02:44:04.421Z,3.20
2022-11-28T02:46:41.166Z,3.20
2022-11-28T02:49:13.769Z,3.20
2022-11-28T02:51:55.296Z,3.20
2022-11-28T02:54:24.769Z,3.20
2022-11-28T02:56:54.035Z,3.10
2022-11-28T02:59:37.259Z,3.20
2022-11-28T03:02:06.635Z,3.20
2022-11-28T03:04:48.162Z,3.20
2022-11-28T03:07:34.081Z,3.10
2022-11-28T03:10:03.745Z,3.10
2022-11-28T03:12:43.429Z,3.10
2022-11-28T03:15:11.835Z,3.10
2022-11-28T03:18:09.231Z,3.10
2022-11-28T03:20:49.425Z,3.10
2022-11-28T03:23:17.567Z,3.10
2022-11-28T03:25:58.612Z,3.10
2022-11-28T03:28:38.118Z,3.20
2022-11-28T03:31:22.154Z,3.10
2022-11-28T03:33:53.944Z,3.20
2022-11-28T03:36:34.525Z,3.20
2022-11-28T03:39:09.210Z,3.20
2022-11-28T03:41:43.512Z,3.20
2022-11-28T03:44:18.873Z,3.20
2022-11-28T03:46:48.638Z,3.20
2022-11-28T03:49:23.234Z,3.20
2022-11-28T03:51:57.596Z,3.20
2022-11-28T03:54:27.358Z,3.20
2022-11-28T03:57:09.363Z,3.20
2022-11-28T03:59:46.806Z,3.10
2022-11-28T04:02:40.269Z,3.20
2022-11-28T04:05:10.543Z,3.20
2022-11-28T04:08:01.256Z,3.20
2022-11-28T04:10:39.045Z,3.20
2022-11-28T04:13:21.480Z,3.20
2022-11-28T04:15:56.776Z,3.20
2022-11-28T04:18:39.602Z,3.10
2022-11-28T04:21:22.742Z,3.20
2022-11-28T04:23:51.032Z,3.20
2022-11-28T04:26:23.418Z,3.20
2022-11-28T04:28:53.035Z,3.20
2022-11-28T04:31:23.317Z,3.20
2022-11-28T04:33:57.212Z,3.20
2022-11-28T04:36:26.696Z,3.30
2022-11-28T04:38:54.161Z,3.20
2022-11-28T04:41:26.630Z,3.20
2022-11-28T04:44:13.685Z,3.10
2022-11-28T04:46:44.886Z,3.20
2022-11-28T04:49:12.298Z,3.10
2022-11-28T04:51:39.106Z,3.20
2022-11-28T04:54:15.679Z,3.20
2022-11-28T04:57:08.832Z,3.20
2022-11-28T04:59:36.965Z,3.20
2022-11-28T05:02:05.787Z,3.20
2022-11-28T05:04:36.150Z,3.20
2022-11-28T05:07:08.288Z,3.20
2022-11-28T05:09:35.669Z,3.10
2022-11-28T05:12:03.365Z,3.10
2022-11-28T05:14:30.172Z,3.00
2022-11-28T05:16:57.021Z,3.00
2022-11-28T05:19:24.251Z,3.00
2022-11-28T05:21:51.121Z,3.00
2022-11-28T05:24:17.911Z,2.90
2022-11-28T05:26:44.672Z,3.00
2022-11-28T05:29:11.536Z,3.00
2022-11-28T05:31:38.836Z,3.00
2022-11-28T05:34:05.655Z,3.00
2022-11-28T05:36:32.472Z,2.90
2022-11-28T05:38:59.371Z,2.90
2022-11-28T05:41:28.975Z,2.90
2022-11-28T05:43:56.999Z,2.90
2022-11-28T05:46:23.938Z,2.90
2022-11-28T05:48:50.734Z,2.90
2022-11-28T05:51:18.022Z,2.90
2022-11-28T05:53:44.923Z,2.90
2022-11-28T05:56:17.069Z,2.90
2022-11-28T05:58:44.161Z,2.90
2022-11-28T06:01:16.874Z,2.90
2022-11-28T06:03:44.345Z,2.90
2022-11-28T06:06:17.564Z,2.90
2022-11-28T06:08:45.487Z,2.80
2022-11-28T06:11:13.451Z,2.90
2022-11-28T06:13:40.736Z,2.90
2022-11-28T06:16:12.887Z,2.80
2022-11-28T06:18:40.634Z,2.80
2022-11-28T06:21:09.308Z,2.80
2022-11-28T06:23:36.548Z,2.80
2022-11-28T06:26:23.458Z,2.90
2022-11-28T06:28:50.446Z,2.90
2022-11-28T06:31:20.286Z,3.00
2022-11-28T06:33:47.595Z,2.90
2022-11-28T06:36:16.175Z,2.90
2022-11-28T06:38:43.330Z,2.90
2022-11-28T06:41:17.238Z,2.90
2022-11-28T06:43:44.171Z,2.90
2022-11-28T06:46:17.344Z,3.00
2022-11-28T06:48:45.313Z,2.90
2022-11-28T06:51:12.683Z,2.90
2022-11-28T06:53:40.517Z,2.90
2022-11-28T06:56:09.929Z,2.90
2022-11-28T06:58:37.181Z,2.90
2022-11-28T07:01:16.517Z,3.00
2022-11-28T07:03:43.743Z,3.00
2022-11-28T07:06:11.801Z,3.00
2022-11-28T07:08:38.591Z,3.00
2022-11-28T07:11:11.808Z,3.00
2022-11-28T07:13:39.507Z,3.00
2022-11-28T07:16:07.440Z,3.00
2022-11-28T07:18:34.378Z,3.00
2022-11-28T07:21:01.637Z,3.10
2022-11-28T07:23:28.529Z,3.10
2022-11-28T07:26:05.319Z,3.10
2022-11-28T07:28:33.229Z,3.10
2022-11-28T07:31:09.465Z,3.10
2022-11-28T07:33:37.210Z,3.10
2022-11-28T07:36:11.309Z,3.10
2022-11-28T07:38:38.241Z,3.20
2022-11-28T07:41:13.324Z,3.10
2022-11-28T07:43:41.595Z,3.10
2022-11-28T07:46:12.213Z,3.10
2022-11-28T07:48:39.149Z,3.00
2022-11-28T07:51:08.345Z,3.10
2022-11-28T07:53:36.080Z,3.10
2022-11-28T07:56:05.161Z,3.10
2022-11-28T07:58:32.061Z,3.20
2022-11-28T08:00:58.841Z,3.10
2022-11-28T08:03:25.747Z,3.20
2022-11-28T08:05:52.558Z,3.20
2022-11-28T08:08:20.126Z,3.20
2022-11-28T08:10:47.174Z,3.30
2022-11-28T08:13:14.334Z,3.40
2022-11-28T08:15:41.441Z,3.40
2022-11-28T08:18:08.451Z,3.40
2022-11-28T08:20:35.307Z,3.50
2022-11-28T08:23:02.120Z,3.50
2022-11-28T08:25:28.875Z,3.50
2022-11-28T08:27:55.677Z,3.50
2022-11-28T08:30:22.560Z,3.50
2022-11-28T08:32:49.489Z,3.50
2022-11-28T08:35:16.330Z,3.40
2022-11-28T08:37:43.353Z,3.40
2022-11-28T08:40:10.365Z,3.50
2022-11-28T08:42:37.148Z,3.50
2022-11-28T08:45:04.320Z,3.50
2022-11-28T08:47:31.049Z,3.50
2022-11-28T08:49:57.855Z,3.60
2022-11-28T08:52:25.941Z,3.60
2022-11-28T08:54:52.745Z,3.60
2022-11-28T08:57:19.536Z,3.70
2022-11-28T08:59:46.428Z,3.70
2022-11-28T09:02:13.398Z,3.70
2022-11-28T09:04:40.191Z,3.70
2022-11-28T09:07:07.068Z,3.80
2022-11-28T09:09:34.293Z,3.70
2022-11-28T09:12:01.064Z,3.80
2022-11-28T09:14:27.829Z,3.70
2022-11-28T09:16:54.868Z,3.70
2022-11-28T09:19:21.731Z,3.70
2022-11-28T09:21:51.916Z,3.70
2022-11-28T09:24:21.407Z,3.70
2022-11-28T09:26:48.241Z,3.70
2022-11-28T09:29:15.150Z,3.60
2022-11-28T09:31:45.928Z,3.70
2022-11-28T09:34:14.333Z,3.70
2022-11-28T09:36:41.159Z,3.70
2022-11-28T09:39:08.381Z,3.70
2022-11-28T09:41:58.156Z,3.80
2022-11-28T09:44:41.048Z,3.70
2022-11-28T09:47:23.844Z,3.70
2022-11-28T09:50:07.226Z,3.70
2022-11-28T09:52:45.351Z,3.70
2022-11-28T09:55:25.100Z,3.70
2022-11-28T09:57:54.153Z,3.70
2022-11-28T10:00:34.782Z,3.80
2022-11-28T10:03:07.684Z,3.80
2022-11-28T10:06:06.812Z,3.80
2022-11-28T10:09:00.865Z,3.80
2022-11-28T10:12:05.464Z,3.90
2022-11-28T10:14:59.688Z,3.90
2022-11-28T10:17:48.294Z,3.90
2022-11-28T10:20:22.823Z,3.80
2022-11-28T10:23:01.073Z,3.80
2022-11-28T10:25:33.962Z,3.80
2022-11-28T10:28:01.543Z,3.90
2022-11-28T10:30:36.313Z,3.80
2022-11-28T10:33:19.256Z,3.80
2022-11-28T10:35:57.587Z,3.80
2022-11-28T10:38:26.954Z,3.80
2022-11-28T10:40:57.298Z,3.80
2022-11-28T10:43:42.657Z,3.80
2022-11-28T10:46:43.301Z,3.80
2022-11-28T10:49:28.924Z,3.70
2022-11-28T10:52:17.610Z,3.80
2022-11-28T10:54:50.485Z,3.80
2022-11-28T10:57:29.155Z,3.80
2022-11-28T11:00:15.765Z,3.80
2022-11-28T11:02:45.587Z,3.80
2022-11-28T11:05:24.024Z,3.80
2022-11-28T11:08:15.462Z,3.80
2022-11-28T11:11:06.437Z,3.90
2022-11-28T11:13:36.061Z,3.90
2022-11-28T11:16:11.449Z,3.90
2022-11-28T11:18:52.760Z,3.90
2022-11-28T11:21:21.323Z,3.90
2022-11-28T11:23:50.145Z,4.00
2022-11-28T11:26:27.264Z,4.00
2022-11-28T11:28:54.562Z,3.90
2022-11-28T11:31:23.385Z,4.00
2022-11-28T11:33:53.091Z,3.90
2022-11-28T11:36:31.714Z,3.90
2022-11-28T11:39:11.855Z,4.10
2022-11-28T11:41:47.008Z,4.00
2022-11-28T11:44:13.750Z,3.90
2022-11-28T11:47:00.103Z,3.90
2022-11-28T11:49:35.961Z,3.90
2022-11-28T11:52:11.688Z,3.90
2022-11-28T11:54:54.134Z,3.90
2022-11-28T11:57:34.838Z,3.90
2022-11-28T12:00:07.253Z,3.90
2022-11-28T12:02:46.638Z,3.80
2022-11-28T12:05:17.740Z,3.70
2022-11-28T12:08:06.770Z,3.70
2022-11-28T12:10:53.594Z,3.80
2022-11-28T12:13:22.915Z,3.80
2022-11-28T12:16:23.265Z,3.80
2022-11-28T12:19:14.670Z,3.80
2022-11-28T12:21:59.680Z,3.80
2022-11-28T12:24:47.584Z,3.80
2022-11-28T12:27:17.586Z,3.80
2022-11-28T12:29:57.997Z,3.80
2022-11-28T12:32:47.046Z,3.70
2022-11-28T12:35:38.830Z,3.80
2022-11-28T12:38:11.735Z,3.70
2022-11-28T12:41:01.946Z,3.80
2022-11-28T12:43:43.956Z,3.90
2022-11-28T12:46:38.916Z,3.90
2022-11-28T12:49:20.456Z,3.90
2022-11-28T12:52:01.891Z,3.80
2022-11-28T12:54:43.169Z,3.80
2022-11-28T12:57:15.296Z,3.70
2022-11-28T13:00:08.359Z,3.70
2022-11-28T13:02:57.655Z,3.70
2022-11-28T13:05:33.339Z,3.70
2022-11-28T13:08:24.324Z,3.80
2022-11-28T13:11:06.261Z,3.80
2022-11-28T13:13:39.990Z,3.70
2022-11-28T13:16:56.445Z,3.60
2022-11-28T13:19:45.865Z,3.60
2022-11-28T13:22:29.247Z,3.70
2022-11-28T13:25:12.160Z,3.70
2022-11-28T13:28:03.292Z,3.60
2022-11-28T13:30:38.713Z,3.60
2022-11-28T13:33:33.810Z,3.50
2022-11-28T13:36:01.860Z,3.60
2022-11-28T13:39:11.179Z,3.50
2022-11-28T13:42:10.084Z,3.50
2022-11-28T13:44:42.496Z,3.50
2022-11-28T13:47:14.645Z,3.50
2022-11-28T13:49:41.625Z,3.50
2022-11-28T13:52:17.899Z,3.40
2022-11-28T13:54:54.921Z,3.40
2022-11-28T13:57:29.002Z,3.50
2022-11-28T14:00:20.839Z,3.40
2022-11-28T14:02:55.761Z,3.40
2022-11-28T14:05:38.125Z,3.40
2022-11-28T14:08:06.240Z,3.40
2022-11-28T14:10:56.544Z,3.30
2022-11-28T14:13:26.293Z,3.30
2022-11-28T14:16:02.841Z,3.30
2022-11-28T14:18:57.552Z,3.30
2022-11-28T14:21:44.740Z,3.30
2022-11-28T14:24:39.310Z,3.30
2022-11-28T14:27:07.504Z,3.30
2022-11-28T14:29:39.792Z,3.30
2022-11-28T14:32:30.048Z,3.30
2022-11-28T14:34:59.136Z,3.30
2022-11-28T14:37:29.476Z,3.30
2022-11-28T14:39:57.779Z,3.30
2022-11-28T14:42:58.844Z,3.30
2022-11-28T14:45:33.429Z,3.20
2022-11-28T14:48:16.574Z,3.20
2022-11-28T14:50:48.222Z,3.20
2022-11-28T14:53:38.338Z,3.20
2022-11-28T14:56:23.857Z,3.20
2022-11-28T14:58:52.554Z,3.10
2022-11-28T15:01:30.101Z,3.20
2022-11-28T15:04:15.008Z,3.10
2022-11-28T15:06:43.187Z,3.10
2022-11-28T15:09:45.255Z,3.10
2022-11-28T15:12:22.990Z,3.20
2022-11-28T15:14:59.740Z,3.10
2022-11-28T15:17:33.008Z,3.10
2022-11-28T15:20:08.403Z,3.10
2022-11-28T15:22:43.624Z,3.10
2022-11-28T15:25:24.463Z,3.10
2022-11-28T15:27:52.083Z,3.10
2022-11-28T15:30:24.291Z,3.00
2022-11-28T15:33:01.645Z,3.00
2022-11-28T15:35:29.029Z,3.10
2022-11-28T15:37:58.320Z,3.00
2022-11-28T15:40:32.479Z,3.00
2022-11-28T15:43:00.674Z,3.00
2022-11-28T15:45:30.679Z,3.00
2022-11-28T15:47:58.885Z,3.00
2022-11-28T15:50:29.292Z,3.00
2022-11-28T15:52:57.885Z,2.90
2022-11-28T15:55:27.731Z,2.90
2022-11-28T15:58:31.985Z,3.00
2022-11-28T16:01:09.300Z,3.00
2022-11-28T16:04:03.893Z,3.00
2022-11-28T16:06:34.024Z,3.00
2022-11-28T16:09:17.443Z,3.00
2022-11-28T16:11:51.428Z,2.90
2022-11-28T16:14:24.826Z,3.00
2022-11-28T16:16:52.013Z,3.00
2022-11-28T16:19:23.529Z,3.00
2022-11-28T16:22:11.585Z,3.00
2022-11-28T16:24:51.277Z,3.00
2022-11-28T16:27:28.489Z,3.00
2022-11-28T16:29:55.926Z,3.00
2022-11-28T16:32:33.089Z,3.00
2022-11-28T16:34:59.981Z,3.00
2022-11-28T16:37:30.290Z,3.00
2022-11-28T16:40:05.985Z,2.90
2022-11-28T16:42:34.812Z,2.90
2022-11-28T16:45:15.585Z,2.90
2022-11-28T16:47:43.831Z,2.90
2022-11-28T16:50:20.433Z,3.00
2022-11-28T16:52:55.559Z,2.90
2022-11-28T16:55:28.652Z,2.90
2022-11-28T16:58:20.229Z,2.90
2022-11-28T17:01:01.720Z,2.90
2022-11-28T17:03:47.158Z,2.90
2022-11-28T17:06:27.046Z,2.90
2022-11-28T17:08:54.336Z,2.80
2022-11-28T17:11:24.316Z,2.90
2022-11-28T17:13:54.167Z,2.90
2022-11-28T17:16:25.859Z,2.90
2022-11-28T17:18:53.459Z,2.90
2022-11-28T17:21:33.074Z,2.90
2022-11-28T17:24:04.317Z,2.80
2022-11-28T17:26:31.413Z,2.90
2022-11-28T17:28:59.626Z,2.80
2022-11-28T17:31:26.732Z,2.90
2022-11-28T17:33:55.612Z,2.90
2022-11-28T17:36:22.871Z,2.80
2022-11-28T17:38:49.969Z,2.90
2022-11-28T17:41:16.763Z,2.80
2022-11-28T17:43:43.907Z,2.80
2022-11-28T17:46:11.135Z,2.80
2022-11-28T17:48:38.362Z,2.70
2022-11-28T17:51:06.406Z,2.70
2022-11-28T17:53:33.722Z,2.70
2022-11-28T17:56:01.590Z,2.60
2022-11-28T17:58:28.897Z,2.60
2022-11-28T18:01:00.566Z,2.60
2022-11-28T18:03:29.083Z,2.60
2022-11-28T18:05:56.535Z,2.60
2022-11-28T18:08:23.789Z,2.60
2022-11-28T18:11:03.139Z,2.60
2022-11-28T18:13:30.282Z,2.60
2022-11-28T18:15:57.931Z,2.50
2022-11-28T18:18:25.363Z,2.50
2022-11-28T18:20:52.582Z,2.50
2022-11-28T18:23:20.599Z,2.60
2022-11-28T18:25:48.342Z,2.60
2022-11-28T18:28:18.845Z,2.50
2022-11-28T18:30:49.018Z,2.50
2022-11-28T18:33:17.618Z,2.50
2022-11-28T18:35:44.493Z,2.50
2022-11-28T18:38:11.789Z,2.50
2022-11-28T18:40:39.723Z,2.50
2022-11-28T18:43:07.451Z,2.50
2022-11-28T18:45:35.060Z,2.50
2022-11-28T18:48:02.897Z,2.40
2022-11-28T18:50:30.822Z,2.40
2022-11-28T18:52:59.337Z,2.40
2022-11-28T18:55:26.638Z,2.40
2022-11-28T18:57:53.928Z,2.40
2022-11-28T19:00:21.768Z,2.40
2022-11-28T19:02:49.328Z,2.40
2022-11-28T19:05:16.440Z,2.40
2022-11-28T19:07:43.704Z,2.40
2022-11-28T19:10:11.727Z,2.30
2022-11-28T19:12:39.091Z,2.30
2022-11-28T19:15:06.944Z,2.40
2022-11-28T19:17:35.039Z,2.30
2022-11-28T19:20:04.174Z,2.30
2022-11-28T19:22:34.614Z,2.30
2022-11-28T19:25:01.993Z,2.20
2022-11-28T19:27:29.518Z,2.20
2022-11-28T19:29:57.474Z,2.20
2022-11-28T19:32:24.877Z,2.20
2022-11-28T19:34:54.409Z,2.10
2022-11-28T19:37:23.138Z,2.10
2022-11-28T19:39:52.461Z,2.10
2022-11-28T19:42:20.179Z,2.10
2022-11-28T19:44:48.330Z,2.10
2022-11-28T19:47:15.919Z,2.10
2022-11-28T19:49:43.661Z,2.10
2022-11-28T19:52:11.687Z,2.10
2022-11-28T19:54:39.435Z,2.10
2022-11-28T19:57:09.614Z,2.10
2022-11-28T19:59:37.846Z,2.00
2022-11-28T20:02:05.949Z,2.10
2022-11-28T20:04:33.707Z,2.10
2022-11-28T20:07:01.467Z,2.20
2022-11-28T20:09:32.348Z,2.10
2022-11-28T20:11:59.344Z,2.10
2022-11-28T20:14:26.601Z,2.10
2022-11-28T20:16:54.445Z,2.00
2022-11-28T20:19:21.259Z,1.90
2022-11-28T20:21:49.287Z,2.00
2022-11-28T20:24:16.959Z,1.90
2022-11-28T20:26:46.687Z,2.00
2022-11-28T20:29:16.363Z,1.90
2022-11-28T20:31:48.673Z,2.00
2022-11-28T20:34:18.417Z,1.90
2022-11-28T20:36:52.622Z,1.80
2022-11-28T20:39:20.706Z,1.90
2022-11-28T20:41:48.644Z,1.80
2022-11-28T20:44:16.093Z,1.90
2022-11-28T20:46:43.464Z,1.90
2022-11-28T20:49:10.842Z,2.00
2022-11-28T20:51:38.467Z,2.00
2022-11-28T20:54:06.764Z,1.90
2022-11-28T20:56:57.956Z,1.90
2022-11-28T20:59:23.989Z,2.00
2022-11-28T21:01:50.996Z,2.00
2022-11-28T21:04:18.527Z,2.00
2022-11-28T21:06:46.954Z,2.00
2022-11-28T21:09:15.394Z,2.00
2022-11-28T21:11:56.987Z,2.00
2022-11-28T21:14:25.798Z,1.90
2022-11-28T21:17:11.605Z,1.90
2022-11-28T21:19:38.518Z,1.90
2022-11-28T21:22:05.868Z,2.00
2022-11-28T21:24:32.761Z,1.90
2022-11-28T21:26:59.592Z,1.90
2022-11-28T21:29:26.336Z,1.90
2022-11-28T21:31:53.629Z,1.90
2022-11-28T21:34:20.453Z,2.00
2022-11-28T21:36:47.717Z,2.00
2022-11-28T21:39:19.504Z,2.00
2022-11-28T21:41:46.472Z,2.00
2022-11-28T21:44:13.288Z,2.00
2022-11-28T21:46:44.059Z,2.00
2022-11-28T21:49:12.211Z,2.00
2022-11-28T21:51:40.070Z,2.00
2022-11-28T21:54:07.356Z,2.00
2022-11-28T21:56:34.243Z,2.00
2022-11-28T21:59:01.236Z,2.00
2022-11-28T22:01:29.132Z,1.90
2022-11-28T22:04:02.136Z,1.80
2022-11-28T22:06:31.352Z,1.90
2022-11-28T22:09:05.760Z,1.90
2022-11-28T22:11:37.989Z,1.90
2022-11-28T22:14:04.872Z,1.90
2022-11-28T22:16:32.387Z,1.80
2022-11-28T22:19:00.743Z,1.80
2022-11-28T22:24:14.640Z,1.80
2022-11-28T22:26:41.414Z,1.80
2022-11-28T22:29:08.230Z,1.80
2022-11-28T22:31:35.270Z,1.90
2022-11-28T22:34:02.199Z,1.90
2022-11-28T22:36:30.002Z,1.90
2022-11-28T22:38:58.133Z,1.80
2022-11-28T22:41:29.326Z,1.80
2022-11-28T22:43:59.982Z,1.80
2022-11-28T22:46:27.969Z,1.80
2022-11-28T22:48:55.138Z,1.70
2022-11-28T22:51:24.946Z,1.70
2022-11-28T22:53:57.672Z,1.80
2022-11-28T22:56:27.655Z,1.80
2022-11-28T22:58:54.735Z,1.80
2022-11-28T23:01:25.798Z,1.70
2022-11-28T23:03:53.997Z,1.80
2022-11-28T23:06:24.701Z,1.70
2022-11-28T23:08:55.841Z,1.70
2022-11-28T23:11:27.888Z,1.70
2022-11-28T23:13:55.407Z,1.80
2022-11-28T23:16:26.068Z,1.70
2022-11-28T23:18:56.316Z,1.70
2022-11-28T23:21:24.632Z,1.70
2022-11-28T23:23:51.905Z,1.80
2022-11-28T23:26:22.130Z,1.80
2022-11-28T23:28:50.694Z,1.80
2022-11-28T23:31:22.753Z,1.70
2022-11-28T23:33:50.400Z,1.70
2022-11-28T23:36:18.026Z,1.70
2022-11-28T23:38:46.365Z,1.70
2022-11-28T23:41:13.879Z,1.60
2022-11-28T23:43:41.286Z,1.80
2022-11-28T23:46:09.864Z,1.80
2022-11-28T23:48:37.142Z,1.70
2022-11-28T23:51:04.520Z,1.80
2022-11-28T23:53:31.287Z,1.80
2022-11-28T23:56:30.153Z,1.80
2022-11-28T23:59:00.051Z,1.80
